Time;durP1;ratioP1;P1;durP2;ratioP2;P2;SDS_P1;SDS_P2;PMS_P1;PMS_P2;Temp;Humidity;BMP_temperature;BMP_pressure;BME280_temperature;BME280_humidity;BME280_pressure;Samples;Min_cycle;Max_cycle;Signal;HPM_P1;HPM_P2
2023/09/20 00:02:20;;;;;;;12.02;8.02;;;;;;;;;;10437334;27;20051;-67
2023/09/20 00:07:18;;;;;;;8.20;7.07;;;;;;;;;;10455498;27;20074;-67
2023/09/20 00:12:17;;;;;;;9.52;8.10;;;;;;;;;;10455649;27;20089;-68
2023/09/20 00:17:17;;;;;;;15.00;7.47;;;;;;;;;;10455531;27;20150;-68
2023/09/20 00:22:16;;;;;;;10.05;8.10;;;;;;;;;;10453611;27;20081;-68
2023/09/20 00:27:14;;;;;;;11.48;8.35;;;;;;;;;;10450956;27;20074;-67
2023/09/20 00:32:13;;;;;;;9.15;8.25;;;;;;;;;;10443320;27;20050;-66
2023/09/20 00:37:13;;;;;;;10.77;8.25;;;;;;;;;;10438392;27;20492;-68
2023/09/20 00:42:12;;;;;;;13.55;7.22;;;;;;;;;;10434041;27;20512;-68
2023/09/20 00:47:11;;;;;;;8.88;7.97;;;;;;;;;;10456287;27;20067;-67
2023/09/20 00:52:12;;;;;;;11.80;8.30;;;;;;;;;;10454102;27;20519;-67
2023/09/20 00:57:12;;;;;;;10.05;6.95;;;;;;;;;;10452893;27;20444;-68
2023/09/20 01:02:10;;;;;;;8.98;7.15;;;;;;;;;;10453813;27;20039;-67
2023/09/20 01:07:09;;;;;;;9.02;8.13;;;;;;;;;;10434292;27;20082;-67
2023/09/20 01:12:08;;;;;;;12.30;7.90;;;;;;;;;;10455212;27;20078;-67
2023/09/20 01:17:10;;;;;;;8.02;7.32;;;;;;;;;;10452622;27;20062;-67
2023/09/20 01:22:10;;;;;;;8.80;7.60;;;;;;;;;;10455067;27;20066;-67
2023/09/20 01:27:08;;;;;;;8.38;7.15;;;;;;;;;;10448421;27;20086;-67
2023/09/20 01:32:07;;;;;;;11.95;7.80;;;;;;;;;;10443753;27;20070;-67
2023/09/20 01:37:05;;;;;;;9.55;7.85;;;;;;;;;;10451791;27;20518;-67
2023/09/20 01:42:05;;;;;;;9.88;8.20;;;;;;;;;;10456394;27;20077;-67
2023/09/20 01:47:04;;;;;;;11.23;7.80;;;;;;;;;;10453395;27;20066;-67
2023/09/20 01:52:05;;;;;;;10.93;8.35;;;;;;;;;;10435117;27;20058;-68
2023/09/20 01:57:05;;;;;;;10.65;8.68;;;;;;;;;;10458944;27;20046;-67
2023/09/20 02:02:04;;;;;;;13.15;8.02;;;;;;;;;;10440694;27;20081;-68
2023/09/20 02:07:02;;;;;;;9.60;7.93;;;;;;;;;;10459997;27;20088;-67
2023/09/20 02:12:01;;;;;;;8.18;7.28;;;;;;;;;;10461460;27;20453;-66
2023/09/20 02:17:00;;;;;;;10.93;7.80;;;;;;;;;;10448639;27;20069;-67
2023/09/20 02:21:58;;;;;;;8.85;7.22;;;;;;;;;;10459783;27;20077;-68
2023/09/20 02:26:57;;;;;;;8.55;7.20;;;;;;;;;;10457540;27;20089;-68
2023/09/20 02:31:55;;;;;;;8.23;7.38;;;;;;;;;;10441277;27;20093;-67
2023/09/20 02:36:56;;;;;;;9.80;7.57;;;;;;;;;;10457288;27;20069;-68
2023/09/20 02:41:55;;;;;;;9.60;8.32;;;;;;;;;;10436221;27;20047;-67
2023/09/20 02:46:55;;;;;;;10.88;7.78;;;;;;;;;;10436676;27;20120;-67
2023/09/20 02:51:54;;;;;;;9.50;8.20;;;;;;;;;;10438475;27;20074;-67
2023/09/20 02:56:56;;;;;;;11.85;8.40;;;;;;;;;;10457335;27;20522;-67
2023/09/20 03:01:54;;;;;;;10.35;8.30;;;;;;;;;;10455755;27;20062;-67
2023/09/20 03:06:53;;;;;;;11.10;8.45;;;;;;;;;;10445817;27;20070;-68
2023/09/20 03:11:55;;;;;;;12.27;8.20;;;;;;;;;;10446971;27;20065;-68
2023/09/20 03:16:53;;;;;;;9.52;8.30;;;;;;;;;;10454870;27;20058;-69
2023/09/20 03:21:53;;;;;;;10.52;8.30;;;;;;;;;;10441617;27;20077;-68
2023/09/20 03:26:53;;;;;;;10.65;7.25;;;;;;;;;;10454146;27;20077;-68
2023/09/20 03:31:53;;;;;;;10.32;7.40;;;;;;;;;;10436758;27;20079;-68
2023/09/20 03:36:52;;;;;;;10.00;7.75;;;;;;;;;;10438613;27;20081;-66
2023/09/20 03:41:51;;;;;;;9.63;8.05;;;;;;;;;;10443772;27;20093;-67
2023/09/20 03:46:51;;;;;;;9.70;7.40;;;;;;;;;;10439653;27;20077;-67
2023/09/20 03:51:49;;;;;;;12.30;7.63;;;;;;;;;;10446298;27;20498;-67
2023/09/20 03:56:48;;;;;;;9.65;6.93;;;;;;;;;;10437622;27;20074;-68
2023/09/20 04:01:46;;;;;;;10.02;7.70;;;;;;;;;;10437266;27;20707;-67
2023/09/20 04:06:47;;;;;;;9.55;8.30;;;;;;;;;;10454664;27;20074;-67
2023/09/20 04:11:45;;;;;;;11.40;7.05;;;;;;;;;;10430090;27;20078;-67
2023/09/20 04:16:43;;;;;;;12.15;7.60;;;;;;;;;;10434248;27;20066;-66
2023/09/20 04:21:42;;;;;;;7.65;6.95;;;;;;;;;;10434765;27;20089;-67
2023/09/20 04:26:41;;;;;;;9.77;6.82;;;;;;;;;;10454649;27;20066;-67
2023/09/20 04:31:40;;;;;;;8.57;7.63;;;;;;;;;;10435556;27;20047;-70
2023/09/20 04:36:39;;;;;;;15.65;8.32;;;;;;;;;;10428898;27;20071;-70
2023/09/20 04:41:37;;;;;;;9.88;7.03;;;;;;;;;;10448619;27;20070;-69
2023/09/20 04:46:39;;;;;;;8.98;7.10;;;;;;;;;;10432745;27;20420;-69
2023/09/20 04:51:38;;;;;;;11.52;7.53;;;;;;;;;;10432306;27;20542;-69
2023/09/20 04:56:37;;;;;;;10.25;6.95;;;;;;;;;;10435594;27;20082;-69
2023/09/20 05:01:35;;;;;;;12.55;7.15;;;;;;;;;;10444801;27;20089;-69
2023/09/20 05:06:37;;;;;;;11.05;7.10;;;;;;;;;;10433896;27;20082;-69
2023/09/20 05:11:35;;;;;;;10.65;6.70;;;;;;;;;;10436422;27;20088;-68
2023/09/20 05:16:36;;;;;;;9.35;6.13;;;;;;;;;;10447723;27;20063;-68
2023/09/20 05:21:37;;;;;;;10.13;6.50;;;;;;;;;;10443767;27;20511;-69
2023/09/20 05:26:35;;;;;;;10.68;5.53;;;;;;;;;;10439664;27;20075;-69
2023/09/20 05:31:34;;;;;;;7.57;5.68;;;;;;;;;;10416067;27;20090;-68
2023/09/20 05:36:33;;;;;;;5.93;5.32;;;;;;;;;;10426066;27;20455;-68
2023/09/20 05:41:34;;;;;;;7.95;6.30;;;;;;;;;;10419418;27;20074;-68
2023/09/20 05:46:32;;;;;;;7.82;5.90;;;;;;;;;;10422904;27;20085;-68
2023/09/20 05:51:30;;;;;;;7.30;6.40;;;;;;;;;;10422119;27;20063;-69
2023/09/20 05:56:29;;;;;;;10.40;6.10;;;;;;;;;;10420297;27;20059;-69
2023/09/20 06:01:30;;;;;;;6.53;5.93;;;;;;;;;;10423804;27;20063;-68
2023/09/20 06:06:30;;;;;;;8.77;5.88;;;;;;;;;;10422604;27;20070;-68
2023/09/20 06:11:28;;;;;;;8.35;6.63;;;;;;;;;;10422579;27;20492;-68
2023/09/20 06:16:26;;;;;;;16.98;6.65;;;;;;;;;;10421718;27;20063;-68
2023/09/20 06:21:26;;;;;;;9.98;7.65;;;;;;;;;;10421551;27;20066;-68
2023/09/20 06:26:24;;;;;;;11.57;7.25;;;;;;;;;;10417906;27;20082;-68
2023/09/20 06:31:22;;;;;;;11.48;7.35;;;;;;;;;;10460334;27;20508;-68
2023/09/20 06:36:22;;;;;;;11.05;6.53;;;;;;;;;;10459350;27;20082;-68
2023/09/20 06:41:23;;;;;;;11.20;6.07;;;;;;;;;;10458936;27;20058;-68
2023/09/20 06:46:24;;;;;;;7.17;6.17;;;;;;;;;;10458246;27;20481;-68
2023/09/20 06:51:23;;;;;;;16.23;7.05;;;;;;;;;;10459491;27;20105;-68
2023/09/20 06:56:23;;;;;;;11.23;7.15;;;;;;;;;;10458518;27;20070;-69
2023/09/20 07:01:25;;;;;;;11.38;5.95;;;;;;;;;;10458048;27;20078;-69
2023/09/20 07:06:24;;;;;;;11.75;7.40;;;;;;;;;;10456080;27;20074;-68
2023/09/20 07:11:26;;;;;;;13.52;7.55;;;;;;;;;;10455331;27;20062;-68
2023/09/20 07:16:24;;;;;;;10.00;6.53;;;;;;;;;;10459970;27;20514;-68
2023/09/20 07:21:23;;;;;;;10.02;7.40;;;;;;;;;;10455644;27;20055;-68
2023/09/20 07:26:26;;;;;;;12.32;6.93;;;;;;;;;;10461410;27;20209;-68
2023/09/20 07:31:26;;;;;;;13.27;7.32;;;;;;;;;;10461772;27;20075;-69
2023/09/20 07:36:29;;;;;;;9.15;7.05;;;;;;;;;;10458611;27;20063;-69
2023/09/20 07:41:35;;;;;;;9.20;6.63;;;;;;;;;;10456060;27;20356;-69
2023/09/20 07:46:39;;;;;;;18.77;6.97;;;;;;;;;;10456373;27;20080;-69
2023/09/20 07:51:37;;;;;;;11.20;6.13;;;;;;;;;;10457310;27;20074;-68
2023/09/20 07:56:36;;;;;;;17.77;6.35;;;;;;;;;;10454812;27;20603;-68
2023/09/20 08:01:37;;;;;;;7.45;6.07;;;;;;;;;;10454846;27;20074;-69
2023/09/20 08:06:35;;;;;;;10.95;6.15;;;;;;;;;;10454370;27;20082;-68
2023/09/20 08:11:34;;;;;;;10.65;5.82;;;;;;;;;;10452823;27;20089;-68
2023/09/20 08:16:33;;;;;;;8.90;5.95;;;;;;;;;;10453082;27;20066;-69
2023/09/20 08:21:53;;;;;;;9.20;7.35;;;;;;;;;;10454282;27;20077;-68
2023/09/20 09:03:44;;;;;;;19.52;5.95;;;;;;;;;;10461785;27;20579;-66
2023/09/20 09:08:44;;;;;;;6.22;5.63;;;;;;;;;;10464554;27;20071;-65
2023/09/20 09:13:43;;;;;;;7.65;5.85;;;;;;;;;;10459953;27;20519;-65
2023/09/20 09:18:41;;;;;;;12.50;5.60;;;;;;;;;;10459474;27;20062;-65
2023/09/20 09:23:45;;;;;;;8.63;5.88;;;;;;;;;;10460090;27;20075;-65
2023/09/20 09:28:45;;;;;;;7.88;5.53;;;;;;;;;;10462357;27;20506;-65
2023/09/20 09:33:43;;;;;;;7.10;6.38;;;;;;;;;;10461772;27;20527;-66
2023/09/20 09:38:42;;;;;;;7.65;5.55;;;;;;;;;;10461690;27;20304;-66
2023/09/20 09:43:40;;;;;;;15.80;6.70;;;;;;;;;;10463673;27;20058;-66
2023/09/20 09:48:42;;;;;;;8.45;6.15;;;;;;;;;;10454478;27;20593;-66
2023/09/20 09:53:41;;;;;;;11.82;5.97;;;;;;;;;;10457539;27;20089;-65
2023/09/20 09:58:40;;;;;;;12.45;6.70;;;;;;;;;;10466825;27;20062;-66
2023/09/20 10:03:43;;;;;;;10.48;5.55;;;;;;;;;;10466427;27;20096;-67
2023/09/20 10:08:42;;;;;;;14.70;6.35;;;;;;;;;;10463071;27;20081;-66
2023/09/20 10:13:42;;;;;;;9.57;6.40;;;;;;;;;;10459080;27;20074;-65
2023/09/20 10:18:55;;;;;;;13.65;7.05;;;;;;;;;;10466147;27;20183;-65
2023/09/20 10:23:59;;;;;;;7.43;5.95;;;;;;;;;;10463458;27;20073;-67
2023/09/20 10:28:58;;;;;;;18.27;11.88;;;;;;;;;;10460143;27;20109;-67
2023/09/20 10:33:58;;;;;;;6.85;4.65;;;;;;;;;;10463094;27;20070;-66
2023/09/20 10:39:17;;;;;;;7.82;5.35;;;;;;;;;;10458578;27;20097;-67
2023/09/20 10:44:24;;;;;;;9.25;4.43;;;;;;;;;;10455320;27;20090;-67
2023/09/20 10:49:42;;;;;;;4.28;3.83;;;;;;;;;;10460359;27;20124;-67
2023/09/20 10:54:40;;;;;;;7.07;4.35;;;;;;;;;;10459017;27;20071;-66
2023/09/20 10:59:38;;;;;;;9.10;4.72;;;;;;;;;;10455031;27;20502;-67
2023/09/20 11:04:38;;;;;;;4.32;3.85;;;;;;;;;;10456855;27;20529;-67
2023/09/20 11:09:39;;;;;;;7.07;5.03;;;;;;;;;;10459848;27;20097;-67
2023/09/20 11:14:39;;;;;;;6.50;4.05;;;;;;;;;;10453665;27;20074;-67
2023/09/20 11:19:39;;;;;;;7.25;3.80;;;;;;;;;;10458134;27;20078;-66
2023/09/20 11:24:41;;;;;;;7.30;3.95;;;;;;;;;;10456621;27;20092;-67
2023/09/20 11:29:40;;;;;;;8.75;3.40;;;;;;;;;;10457956;27;20077;-67
2023/09/20 11:34:43;;;;;;;5.47;3.85;;;;;;;;;;10462083;27;20065;-67
2023/09/20 11:39:44;;;;;;;10.60;4.20;;;;;;;;;;10462514;27;20078;-68
2023/09/20 11:44:42;;;;;;;10.50;4.80;;;;;;;;;;10454593;27;20055;-66
2023/09/20 11:49:41;;;;;;;5.85;3.83;;;;;;;;;;10456222;27;20541;-67
2023/09/20 11:54:41;;;;;;;12.40;4.55;;;;;;;;;;10458043;27;20085;-67
2023/09/20 11:59:42;;;;;;;6.43;4.15;;;;;;;;;;10456104;27;20779;-67
2023/09/20 12:04:40;;;;;;;7.88;4.22;;;;;;;;;;10442104;27;20038;-67
2023/09/20 12:09:39;;;;;;;5.18;3.70;;;;;;;;;;10455674;27;20070;-67
2023/09/20 12:14:38;;;;;;;10.23;4.38;;;;;;;;;;10456195;27;20109;-67
2023/09/20 12:19:38;;;;;;;8.15;3.95;;;;;;;;;;10453180;27;20054;-67
2023/09/20 12:24:39;;;;;;;11.05;4.90;;;;;;;;;;10453905;27;20530;-67
2023/09/20 12:29:37;;;;;;;12.27;5.20;;;;;;;;;;10453169;27;20480;-68
2023/09/20 12:34:35;;;;;;;10.32;4.95;;;;;;;;;;10454424;27;20081;-68
2023/09/20 12:39:36;;;;;;;9.85;5.20;;;;;;;;;;10457301;27;20063;-67
2023/09/20 12:44:38;;;;;;;14.10;5.13;;;;;;;;;;10457893;27;20062;-67
2023/09/20 12:49:37;;;;;;;10.70;5.22;;;;;;;;;;10455625;27;20074;-68
2023/09/20 12:54:37;;;;;;;11.45;4.95;;;;;;;;;;10452413;27;20074;-67
2023/09/20 12:59:36;;;;;;;13.02;5.32;;;;;;;;;;10457620;27;20507;-67
2023/09/20 13:04:34;;;;;;;10.02;5.05;;;;;;;;;;10455088;27;20075;-67
2023/09/20 13:09:33;;;;;;;11.00;4.82;;;;;;;;;;10456886;27;20072;-66
2023/09/20 13:14:32;;;;;;;10.98;4.57;;;;;;;;;;10454051;27;20456;-66
2023/09/20 13:19:33;;;;;;;9.25;4.68;;;;;;;;;;10457631;27;20058;-66
2023/09/20 13:24:33;;;;;;;6.95;4.55;;;;;;;;;;10453552;27;20113;-67
2023/09/20 13:29:32;;;;;;;10.82;4.10;;;;;;;;;;10443365;27;20086;-67
2023/09/20 13:34:31;;;;;;;10.98;4.25;;;;;;;;;;10447652;27;20059;-67
2023/09/20 13:39:29;;;;;;;7.13;4.40;;;;;;;;;;10452118;27;20066;-67
2023/09/20 13:44:31;;;;;;;11.63;4.63;;;;;;;;;;10458110;27;20120;-66
2023/09/20 13:49:30;;;;;;;10.98;4.07;;;;;;;;;;10461734;27;20456;-65
2023/09/20 13:54:29;;;;;;;14.75;4.65;;;;;;;;;;10455943;27;20070;-68
2023/09/20 13:59:29;;;;;;;13.02;3.72;;;;;;;;;;10457376;27;20062;-67
2023/09/20 14:04:29;;;;;;;5.85;4.30;;;;;;;;;;10455778;27;20067;-66
2023/09/20 14:09:29;;;;;;;6.60;3.10;;;;;;;;;;10458821;27;20487;-66
2023/09/20 14:14:27;;;;;;;8.35;4.75;;;;;;;;;;10459439;27;20065;-67
2023/09/20 14:19:25;;;;;;;9.30;4.20;;;;;;;;;;10458825;27;20085;-66
2023/09/20 14:24:26;;;;;;;7.30;3.53;;;;;;;;;;10459888;27;20511;-66
2023/09/20 14:29:24;;;;;;;5.50;3.50;;;;;;;;;;10456457;27;20091;-66
2023/09/20 14:34:22;;;;;;;9.07;4.25;;;;;;;;;;10457225;27;20093;-67
2023/09/20 14:39:21;;;;;;;6.15;3.25;;;;;;;;;;10457200;27;20073;-67
2023/09/20 14:44:20;;;;;;;11.00;4.13;;;;;;;;;;10461732;27;20081;-68
2023/09/20 14:49:19;;;;;;;7.15;3.35;;;;;;;;;;10459152;27;20075;-68
2023/09/20 14:54:18;;;;;;;7.57;4.10;;;;;;;;;;10457587;27;20066;-68
2023/09/20 14:59:16;;;;;;;7.97;4.07;;;;;;;;;;10458722;27;20073;-68
2023/09/20 15:04:17;;;;;;;12.88;4.50;;;;;;;;;;10458073;27;20070;-68
2023/09/20 15:09:16;;;;;;;7.97;3.55;;;;;;;;;;10457997;27;20095;-68
2023/09/20 15:14:14;;;;;;;9.45;4.20;;;;;;;;;;10458427;27;20523;-69
2023/09/20 15:19:12;;;;;;;9.85;3.58;;;;;;;;;;10439389;27;20071;-68
2023/09/20 15:24:14;;;;;;;4.88;2.97;;;;;;;;;;10457302;27;20062;-68
2023/09/20 15:29:16;;;;;;;10.55;4.25;;;;;;;;;;10454844;27;20095;-67
2023/09/20 15:34:15;;;;;;;9.10;3.60;;;;;;;;;;10456857;27;20059;-68
2023/09/20 15:39:17;;;;;;;6.03;3.65;;;;;;;;;;10459006;27;20777;-67
2023/09/20 15:44:15;;;;;;;12.57;3.25;;;;;;;;;;10458034;27;20085;-67
2023/09/20 15:49:14;;;;;;;5.50;2.88;;;;;;;;;;10456480;27;20071;-67
2023/09/20 15:54:13;;;;;;;9.43;3.85;;;;;;;;;;10457189;27;20073;-66
2023/09/20 15:59:13;;;;;;;11.55;3.85;;;;;;;;;;10454541;27;20065;-67
2023/09/20 16:04:11;;;;;;;35.65;5.63;;;;;;;;;;10453687;27;20069;-67
2023/09/20 16:09:09;;;;;;;5.90;3.17;;;;;;;;;;10450204;27;20133;-68
2023/09/20 16:14:08;;;;;;;8.13;3.40;;;;;;;;;;10453820;27;20530;-67
2023/09/20 16:19:08;;;;;;;10.98;3.47;;;;;;;;;;10451871;27;20047;-67
2023/09/20 16:24:09;;;;;;;8.30;3.00;;;;;;;;;;10453541;27;20067;-67
2023/09/20 16:29:10;;;;;;;5.32;3.45;;;;;;;;;;10453752;27;20090;-67
2023/09/20 16:34:10;;;;;;;12.15;3.85;;;;;;;;;;10453781;27;20077;-66
2023/09/20 16:39:09;;;;;;;9.73;4.20;;;;;;;;;;10453359;27;20089;-67
2023/09/20 16:44:07;;;;;;;9.43;3.63;;;;;;;;;;10458026;27;20088;-67
2023/09/20 16:49:05;;;;;;;8.90;3.92;;;;;;;;;;10454226;27;20100;-66
2023/09/20 16:54:05;;;;;;;9.23;3.90;;;;;;;;;;10452309;27;20117;-66
2023/09/20 16:59:06;;;;;;;8.55;4.13;;;;;;;;;;10453104;27;20071;-66
2023/09/20 17:04:05;;;;;;;10.85;4.10;;;;;;;;;;10452495;27;20075;-68
2023/09/20 17:09:06;;;;;;;8.02;3.92;;;;;;;;;;10456705;27;20071;-68
2023/09/20 17:14:06;;;;;;;9.25;3.67;;;;;;;;;;10458499;27;20070;-67
2023/09/20 17:19:05;;;;;;;9.88;3.83;;;;;;;;;;10458728;27;20106;-67
2023/09/20 17:24:05;;;;;;;9.95;4.13;;;;;;;;;;10463040;27;20071;-67
2023/09/20 17:29:03;;;;;;;8.35;3.63;;;;;;;;;;10463746;27;20313;-67
2023/09/20 17:34:03;;;;;;;8.80;4.00;;;;;;;;;;10464723;27;20090;-67
2023/09/20 17:39:04;;;;;;;11.00;4.43;;;;;;;;;;10463236;27;20075;-67
2023/09/20 17:44:04;;;;;;;6.57;3.85;;;;;;;;;;10466724;27;20519;-66
2023/09/20 17:49:04;;;;;;;8.52;4.10;;;;;;;;;;10460805;27;20086;-67
2023/09/20 17:54:02;;;;;;;10.82;3.90;;;;;;;;;;10458672;27;20128;-67
2023/09/20 17:59:01;;;;;;;7.15;3.58;;;;;;;;;;10461400;27;20074;-68
2023/09/20 18:04:02;;;;;;;9.40;3.85;;;;;;;;;;10460117;27;20570;-67
2023/09/20 18:09:02;;;;;;;11.65;4.40;;;;;;;;;;10460291;27;20085;-67
2023/09/20 18:14:03;;;;;;;10.80;4.80;;;;;;;;;;10461004;27;20089;-68
2023/09/20 18:19:04;;;;;;;13.35;4.53;;;;;;;;;;10461309;27;20066;-68
2023/09/20 18:24:03;;;;;;;8.05;4.30;;;;;;;;;;10459667;27;20172;-68
2023/09/20 18:29:02;;;;;;;10.57;3.55;;;;;;;;;;10460228;27;20101;-68
2023/09/20 18:34:01;;;;;;;10.70;4.05;;;;;;;;;;10459777;27;20070;-68
2023/09/20 18:39:03;;;;;;;8.75;3.97;;;;;;;;;;10463388;27;20067;-67
2023/09/20 18:44:01;;;;;;;9.50;4.47;;;;;;;;;;10458779;27;20063;-67
2023/09/20 18:49:00;;;;;;;9.35;5.28;;;;;;;;;;10456868;27;20090;-66
2023/09/20 18:53:58;;;;;;;8.48;4.20;;;;;;;;;;10460055;27;20517;-67
2023/09/20 18:59:02;;;;;;;12.00;4.32;;;;;;;;;;10458613;27;20562;-68
2023/09/20 19:04:01;;;;;;;5.32;3.90;;;;;;;;;;10454998;27;20089;-68
2023/09/20 19:09:00;;;;;;;6.63;4.00;;;;;;;;;;10462565;27;20155;-68
2023/09/20 19:13:58;;;;;;;7.07;4.63;;;;;;;;;;10466263;27;20069;-66
2023/09/20 19:18:58;;;;;;;7.47;4.70;;;;;;;;;;10459267;27;20108;-67
2023/09/20 19:23:58;;;;;;;11.15;4.40;;;;;;;;;;10441795;27;20077;-66
2023/09/20 19:28:56;;;;;;;8.57;4.47;;;;;;;;;;10462389;27;20074;-67
2023/09/20 19:34:01;;;;;;;9.43;4.75;;;;;;;;;;10459301;27;20090;-65
2023/09/20 19:38:59;;;;;;;13.75;4.70;;;;;;;;;;10458486;27;20073;-66
2023/09/20 19:43:59;;;;;;;6.82;4.75;;;;;;;;;;10456349;27;20063;-66
2023/09/20 19:49:00;;;;;;;11.82;4.78;;;;;;;;;;10442319;27;20073;-67
2023/09/20 19:54:00;;;;;;;9.98;4.60;;;;;;;;;;10454542;27;20071;-66
2023/09/20 19:58:58;;;;;;;8.65;4.53;;;;;;;;;;10452301;27;20078;-65
2023/09/20 20:03:57;;;;;;;15.98;5.30;;;;;;;;;;10458672;27;20062;-66
2023/09/20 20:08:56;;;;;;;8.20;4.43;;;;;;;;;;10435294;27;20468;-68
2023/09/20 20:13:56;;;;;;;6.30;4.70;;;;;;;;;;10457590;27;20082;-68
2023/09/20 20:18:56;;;;;;;12.70;6.43;;;;;;;;;;10457203;27;20074;-67
2023/09/20 20:23:56;;;;;;;7.40;5.18;;;;;;;;;;10456004;27;20087;-66
2023/09/20 20:28:56;;;;;;;11.05;5.60;;;;;;;;;;10458199;27;20074;-66
2023/09/20 20:33:58;;;;;;;10.63;6.00;;;;;;;;;;10454792;27;20077;-66
2023/09/20 20:38:56;;;;;;;8.20;6.13;;;;;;;;;;10456335;27;20074;-67
2023/09/20 20:43:56;;;;;;;12.15;6.32;;;;;;;;;;10454037;27;20082;-66
2023/09/20 20:48:57;;;;;;;10.82;5.25;;;;;;;;;;10457213;27;20063;-67
2023/09/20 20:53:56;;;;;;;11.20;6.93;;;;;;;;;;10458625;27;20085;-67
2023/09/20 20:58:55;;;;;;;12.68;6.32;;;;;;;;;;10439749;27;20097;-67
2023/09/20 21:03:54;;;;;;;11.90;6.55;;;;;;;;;;10457913;27;20067;-67
2023/09/20 21:08:53;;;;;;;7.25;4.85;;;;;;;;;;10460468;27;20534;-67
2023/09/20 21:13:53;;;;;;;9.25;5.82;;;;;;;;;;10437025;27;20490;-68
2023/09/20 21:18:56;;;;;;;6.93;6.22;;;;;;;;;;10456872;27;20063;-67
2023/09/20 21:23:55;;;;;;;7.17;6.47;;;;;;;;;;10460557;27;20062;-66
2023/09/20 21:28:55;;;;;;;8.88;5.80;;;;;;;;;;10459978;27;20102;-66
2023/09/20 21:33:54;;;;;;;10.07;6.15;;;;;;;;;;10461945;27;20684;-66
2023/09/20 21:38:53;;;;;;;7.68;5.60;;;;;;;;;;10455402;27;20574;-67
2023/09/20 21:43:51;;;;;;;10.25;6.18;;;;;;;;;;10456378;27;20521;-66
2023/09/20 21:48:50;;;;;;;10.93;6.00;;;;;;;;;;10455533;27;20526;-65
2023/09/20 21:53:51;;;;;;;14.25;6.50;;;;;;;;;;10453315;27;20070;-67
2023/09/20 21:58:49;;;;;;;8.85;5.65;;;;;;;;;;10445526;27;20070;-66
2023/09/20 22:03:47;;;;;;;7.90;5.50;;;;;;;;;;10454581;27;20071;-66
2023/09/20 22:08:46;;;;;;;12.32;6.07;;;;;;;;;;10434268;27;20093;-67
2023/09/20 22:13:45;;;;;;;7.13;5.78;;;;;;;;;;10459255;27;20081;-66
2023/09/20 22:18:44;;;;;;;8.95;4.93;;;;;;;;;;10458794;27;20073;-67
2023/09/20 22:23:42;;;;;;;6.80;5.43;;;;;;;;;;10459973;27;20073;-66
2023/09/20 22:28:41;;;;;;;7.28;5.20;;;;;;;;;;10461148;27;20071;-66
2023/09/20 22:33:40;;;;;;;10.18;5.30;;;;;;;;;;10461485;27;20075;-66
2023/09/20 22:38:41;;;;;;;15.60;5.25;;;;;;;;;;10461781;27;20066;-67
2023/09/20 22:43:39;;;;;;;7.78;5.28;;;;;;;;;;10462318;27;20053;-67
2023/09/20 22:48:38;;;;;;;9.43;4.78;;;;;;;;;;10459505;27;20063;-67
2023/09/20 22:53:38;;;;;;;10.80;5.07;;;;;;;;;;10454953;27;20482;-67
2023/09/20 22:58:38;;;;;;;7.97;5.53;;;;;;;;;;10435441;27;20503;-67
2023/09/20 23:03:38;;;;;;;11.20;4.82;;;;;;;;;;10458861;27;20066;-67
2023/09/20 23:08:38;;;;;;;9.75;5.40;;;;;;;;;;10460110;27;20062;-66
2023/09/20 23:13:39;;;;;;;5.82;4.88;;;;;;;;;;10460732;27;20077;-66
2023/09/20 23:18:38;;;;;;;9.00;5.57;;;;;;;;;;10454938;27;20082;-68
2023/09/20 23:23:36;;;;;;;6.18;4.88;;;;;;;;;;10458761;27;20074;-66
2023/09/20 23:28:36;;;;;;;6.60;4.60;;;;;;;;;;10457195;27;20089;-67
2023/09/20 23:33:35;;;;;;;8.57;5.60;;;;;;;;;;10457865;27;20082;-66
2023/09/20 23:38:38;;;;;;;9.27;5.22;;;;;;;;;;10458191;27;20062;-66
2023/09/20 23:43:42;;;;;;;6.22;4.55;;;;;;;;;;10458947;27;20500;-66
2023/09/20 23:48:43;;;;;;;12.77;5.47;;;;;;;;;;10458561;27;20062;-67
2023/09/20 23:53:42;;;;;;;5.63;4.47;;;;;;;;;;10456398;27;20255;-67
2023/09/20 23:58:42;;;;;;;6.72;5.00;;;;;;;;;;10457630;27;20059;-66
